createdAt,value
2019-03-31T00:02:07.906Z,29.23
2019-03-31T00:04:36.396Z,28.97
2019-03-31T00:07:05.031Z,29.10
2019-03-31T00:09:33.564Z,29.17
2019-03-31T00:12:02.105Z,29.30
2019-03-31T00:14:30.839Z,27.67
2019-03-31T00:16:59.364Z,27.27
2019-03-31T00:19:27.884Z,26.80
2019-03-31T00:21:56.355Z,27.83
2019-03-31T00:24:24.798Z,30.97
2019-03-31T00:26:54.214Z,31.67
2019-03-31T00:29:42.248Z,30.90
2019-03-31T00:32:10.747Z,29.60
2019-03-31T00:34:39.297Z,31.43
2019-03-31T00:37:08.036Z,31.97
2019-03-31T00:39:36.528Z,32.23
2019-03-31T00:42:05.074Z,32.90
2019-03-31T00:44:33.581Z,33.03
2019-03-31T00:47:02.400Z,33.03
2019-03-31T00:49:31.018Z,34.03
2019-03-31T00:51:59.471Z,33.90
2019-03-31T00:54:28.051Z,31.43
2019-03-31T00:56:56.573Z,32.60
2019-03-31T00:59:25.047Z,34.33
2019-03-31T01:01:55.069Z,32.50
2019-03-31T01:04:26.140Z,32.27
2019-03-31T01:06:55.436Z,33.07
2019-03-31T01:09:28.630Z,33.00
2019-03-31T01:11:57.173Z,34.27
2019-03-31T01:14:26.624Z,35.20
2019-03-31T01:16:55.239Z,35.27
2019-03-31T01:19:24.798Z,32.70
2019-03-31T01:21:53.234Z,33.07
2019-03-31T01:24:21.711Z,33.20
2019-03-31T01:26:50.295Z,32.03
2019-03-31T01:29:19.115Z,34.80
2019-03-31T01:31:50.699Z,33.87
2019-03-31T01:34:18.640Z,32.87
2019-03-31T01:36:47.172Z,33.17
2019-03-31T01:39:15.927Z,34.83
2019-03-31T01:41:44.509Z,34.53
2019-03-31T01:44:13.226Z,34.10
2019-03-31T01:46:41.692Z,34.10
2019-03-31T01:49:10.227Z,34.13
2019-03-31T01:51:39.624Z,33.20
2019-03-31T01:54:08.178Z,36.43
2019-03-31T01:56:36.719Z,37.60
2019-03-31T01:59:05.171Z,39.73
2019-03-31T02:01:33.783Z,37.27
2019-03-31T02:04:02.305Z,36.87
2019-03-31T02:06:30.931Z,37.83
2019-03-31T02:08:59.404Z,37.43
2019-03-31T02:11:27.866Z,38.47
2019-03-31T02:13:56.305Z,38.37
2019-03-31T02:16:24.850Z,38.63
2019-03-31T02:18:53.300Z,37.83
2019-03-31T02:21:21.773Z,40.10
2019-03-31T02:23:50.235Z,41.73
2019-03-31T02:26:18.693Z,39.40
2019-03-31T02:28:47.153Z,40.50
2019-03-31T02:31:15.678Z,41.13
2019-03-31T02:33:44.149Z,41.90
2019-03-31T02:36:12.690Z,42.50
2019-03-31T02:38:41.143Z,43.90
2019-03-31T02:41:09.606Z,42.97
2019-03-31T02:43:38.050Z,42.97
2019-03-31T02:46:06.555Z,42.70
2019-03-31T02:48:34.985Z,45.20
2019-03-31T02:51:03.495Z,43.87
2019-03-31T02:53:32.105Z,44.20
2019-03-31T02:56:01.017Z,44.47
2019-03-31T02:58:30.055Z,43.27
2019-03-31T03:00:59.435Z,41.13
2019-03-31T03:03:29.791Z,44.07
2019-03-31T03:06:00.051Z,43.77
2019-03-31T03:08:30.954Z,41.70
2019-03-31T03:11:01.236Z,42.57
2019-03-31T03:13:31.898Z,42.10
2019-03-31T03:16:03.526Z,41.23
2019-03-31T03:18:32.400Z,40.63
2019-03-31T03:21:00.890Z,41.80
2019-03-31T03:23:29.372Z,42.73
2019-03-31T03:25:57.860Z,41.97
2019-03-31T03:28:26.332Z,40.73
2019-03-31T03:30:55.268Z,42.93
2019-03-31T03:33:23.962Z,41.77
2019-03-31T03:35:52.486Z,41.30
2019-03-31T03:38:20.952Z,40.77
2019-03-31T03:40:49.394Z,41.60
2019-03-31T03:43:17.886Z,39.07
2019-03-31T03:45:46.411Z,39.50
2019-03-31T03:48:14.903Z,40.73
2019-03-31T03:50:43.364Z,40.30
2019-03-31T03:53:11.844Z,40.30
2019-03-31T03:55:40.352Z,39.50
2019-03-31T03:58:08.871Z,39.20
2019-03-31T04:00:37.709Z,41.87
2019-03-31T04:03:06.247Z,42.07
2019-03-31T04:05:34.713Z,43.60
2019-03-31T04:08:03.192Z,42.07
2019-03-31T04:10:46.507Z,44.27
2019-03-31T04:13:15.456Z,46.33
2019-03-31T04:15:43.938Z,44.27
2019-03-31T04:18:12.443Z,43.63
2019-03-31T04:20:40.974Z,46.30
2019-03-31T04:23:09.488Z,45.80
2019-03-31T04:25:38.026Z,46.57
2019-03-31T04:28:06.573Z,44.77
2019-03-31T04:30:35.123Z,47.23
2019-03-31T04:33:03.601Z,46.63
2019-03-31T04:35:32.037Z,43.57
2019-03-31T04:38:00.515Z,37.43
2019-03-31T04:40:29.001Z,36.37
2019-03-31T04:42:57.473Z,33.83
2019-03-31T04:45:25.925Z,31.57
2019-03-31T04:47:54.394Z,32.40
2019-03-31T04:50:22.910Z,34.03
2019-03-31T04:52:51.392Z,32.17
2019-03-31T04:55:19.848Z,32.43
2019-03-31T04:57:48.355Z,35.00
2019-03-31T05:00:16.836Z,31.43
2019-03-31T05:02:45.286Z,33.70
2019-03-31T05:05:13.752Z,33.90
2019-03-31T05:07:42.291Z,30.40
2019-03-31T05:10:10.908Z,32.57
2019-03-31T05:12:39.357Z,28.87
2019-03-31T05:15:07.932Z,29.77
2019-03-31T05:17:36.428Z,28.17
2019-03-31T05:20:24.291Z,27.83
2019-03-31T05:22:53.070Z,26.33
2019-03-31T05:25:21.696Z,28.80
2019-03-31T05:27:50.152Z,29.03
2019-03-31T05:30:18.600Z,30.10
2019-03-31T05:32:47.087Z,25.10
2019-03-31T05:35:15.635Z,24.70
2019-03-31T05:37:50.739Z,25.23
2019-03-31T05:40:14.347Z,24.73
2019-03-31T05:42:42.799Z,23.70
2019-03-31T05:45:11.324Z,24.17
2019-03-31T05:47:39.771Z,22.70
2019-03-31T05:50:08.244Z,23.23
2019-03-31T05:52:36.680Z,24.83
2019-03-31T05:55:06.612Z,25.13
2019-03-31T05:57:35.067Z,23.93
2019-03-31T06:00:05.864Z,22.97
2019-03-31T06:02:34.335Z,21.40
2019-03-31T06:05:02.818Z,20.80
2019-03-31T06:07:31.268Z,19.20
2019-03-31T06:09:59.740Z,19.90
2019-03-31T06:12:31.893Z,18.87
2019-03-31T06:15:00.420Z,20.20
2019-03-31T06:17:28.947Z,20.70
2019-03-31T06:19:57.392Z,21.17
2019-03-31T06:22:25.853Z,19.83
2019-03-31T06:24:54.301Z,20.53
2019-03-31T06:27:22.776Z,20.87
2019-03-31T06:29:51.250Z,19.23
2019-03-31T06:32:19.709Z,20.40
2019-03-31T06:34:48.186Z,19.37
2019-03-31T06:37:16.709Z,18.90
2019-03-31T06:39:45.156Z,18.80
2019-03-31T06:42:13.627Z,18.07
2019-03-31T06:44:42.083Z,17.47
2019-03-31T06:47:10.553Z,18.03
2019-03-31T06:49:39.024Z,18.73
2019-03-31T06:52:07.494Z,19.33
2019-03-31T06:54:36.544Z,19.90
2019-03-31T06:57:05.044Z,17.33
2019-03-31T06:59:33.515Z,16.93
2019-03-31T07:02:03.334Z,15.83
2019-03-31T07:04:32.105Z,16.57
2019-03-31T07:07:00.544Z,16.67
2019-03-31T07:09:29.019Z,15.93
2019-03-31T07:11:57.487Z,15.63
2019-03-31T07:14:25.935Z,15.23
2019-03-31T07:16:54.407Z,13.63
2019-03-31T07:19:22.867Z,12.37
2019-03-31T07:21:51.331Z,13.00
2019-03-31T07:24:19.770Z,13.07
2019-03-31T07:26:48.258Z,12.90
2019-03-31T07:29:16.727Z,12.53
2019-03-31T07:31:45.201Z,11.47
2019-03-31T07:34:13.655Z,9.37
2019-03-31T07:36:42.143Z,10.47
2019-03-31T07:39:10.685Z,10.60
2019-03-31T07:41:39.481Z,8.93
2019-03-31T07:44:08.021Z,9.30
2019-03-31T07:46:36.561Z,8.50
2019-03-31T07:49:04.999Z,8.33
2019-03-31T07:51:33.482Z,7.83
2019-03-31T07:54:01.919Z,7.67
2019-03-31T07:56:30.354Z,8.80
2019-03-31T07:58:59.500Z,6.90
2019-03-31T08:01:28.019Z,7.73
2019-03-31T08:03:56.494Z,8.10
2019-03-31T08:06:24.963Z,8.50
2019-03-31T08:08:53.612Z,8.10
2019-03-31T08:11:22.152Z,9.40
2019-03-31T08:13:50.630Z,9.37
2019-03-31T08:16:19.062Z,9.77
2019-03-31T08:18:47.522Z,9.50
2019-03-31T08:21:15.991Z,9.80
2019-03-31T08:23:44.427Z,9.13
2019-03-31T08:26:12.892Z,9.27
2019-03-31T08:28:41.329Z,9.47
2019-03-31T08:31:09.794Z,9.43
2019-03-31T08:33:38.243Z,10.23
2019-03-31T08:36:06.706Z,10.93
2019-03-31T08:38:35.225Z,11.20
2019-03-31T08:41:03.869Z,13.53
2019-03-31T08:43:32.302Z,12.60
2019-03-31T08:46:00.770Z,11.07
2019-03-31T08:48:29.223Z,10.50
2019-03-31T08:50:57.666Z,10.33
2019-03-31T08:53:26.218Z,11.13
2019-03-31T08:55:54.654Z,11.63
2019-03-31T08:58:23.090Z,10.77
2019-03-31T09:00:53.193Z,9.20
2019-03-31T09:03:21.708Z,8.97
2019-03-31T09:06:01.071Z,9.00
2019-03-31T09:08:20.335Z,8.43
2019-03-31T09:10:48.795Z,9.37
2019-03-31T09:13:17.252Z,9.90
2019-03-31T09:15:45.699Z,8.43
2019-03-31T09:18:14.178Z,8.07
2019-03-31T09:20:42.622Z,7.20
2019-03-31T09:23:11.097Z,6.63
2019-03-31T09:25:39.622Z,7.30
2019-03-31T09:28:08.080Z,6.80
2019-03-31T09:30:36.565Z,7.20
2019-03-31T09:33:05.102Z,6.90
2019-03-31T09:35:33.562Z,6.87
2019-03-31T09:38:02.004Z,7.63
2019-03-31T09:40:30.462Z,7.53
2019-03-31T09:42:58.946Z,7.77
2019-03-31T09:45:27.407Z,7.57
2019-03-31T09:47:55.855Z,6.50
2019-03-31T09:50:24.316Z,6.30
2019-03-31T09:52:52.871Z,6.67
2019-03-31T09:55:23.082Z,6.03
2019-03-31T09:57:51.550Z,6.37
2019-03-31T10:00:31.882Z,5.90
2019-03-31T10:03:01.207Z,6.43
2019-03-31T10:05:29.899Z,5.77
2019-03-31T10:07:58.568Z,5.50
2019-03-31T10:10:32.245Z,4.90
2019-03-31T10:13:00.976Z,5.37
2019-03-31T10:15:29.487Z,5.33
2019-03-31T10:17:58.015Z,5.30
2019-03-31T10:20:26.519Z,6.07
2019-03-31T10:22:54.990Z,5.57
2019-03-31T10:25:23.543Z,4.90
2019-03-31T10:27:52.093Z,5.43
2019-03-31T10:30:32.054Z,5.77
2019-03-31T10:33:00.490Z,5.87
2019-03-31T10:35:29.034Z,5.30
2019-03-31T10:37:57.493Z,5.07
2019-03-31T10:40:25.939Z,4.73
2019-03-31T10:42:54.408Z,4.23
2019-03-31T10:45:22.842Z,4.30
2019-03-31T10:47:51.312Z,3.40
2019-03-31T10:50:19.798Z,3.73
2019-03-31T10:52:51.751Z,3.37
2019-03-31T10:55:20.230Z,2.60
2019-03-31T10:57:48.721Z,3.07
2019-03-31T11:00:20.306Z,2.57
2019-03-31T11:02:48.746Z,2.43
2019-03-31T11:05:17.350Z,2.70
2019-03-31T11:07:45.793Z,3.03
2019-03-31T11:10:15.040Z,2.20
2019-03-31T11:12:46.373Z,2.40
2019-03-31T11:15:14.897Z,2.43
2019-03-31T11:17:43.382Z,2.43
2019-03-31T11:20:11.918Z,2.20
2019-03-31T11:22:42.036Z,2.90
2019-03-31T11:25:20.614Z,3.13
2019-03-31T11:27:43.738Z,2.23
2019-03-31T11:30:11.706Z,3.03
2019-03-31T11:32:40.183Z,2.00
2019-03-31T11:35:08.707Z,2.40
2019-03-31T11:37:37.183Z,2.13
2019-03-31T11:40:07.462Z,2.70
2019-03-31T11:42:35.935Z,2.47
2019-03-31T11:45:06.411Z,2.50
2019-03-31T11:47:34.954Z,2.63
2019-03-31T11:50:05.045Z,2.33
2019-03-31T11:52:33.514Z,2.50
2019-03-31T11:55:01.955Z,2.37
2019-03-31T11:57:30.431Z,2.43
2019-03-31T11:59:58.919Z,2.43
2019-03-31T12:02:27.918Z,2.70
2019-03-31T12:04:56.507Z,2.40
2019-03-31T12:07:28.102Z,2.70
2019-03-31T12:09:55.136Z,3.20
2019-03-31T12:12:23.588Z,2.10
2019-03-31T12:15:00.296Z,3.03
2019-03-31T12:17:22.343Z,2.57
2019-03-31T12:19:50.798Z,2.47
2019-03-31T12:22:19.278Z,2.70
2019-03-31T12:24:47.731Z,2.77
2019-03-31T12:27:16.194Z,2.27
2019-03-31T12:29:44.670Z,2.43
2019-03-31T12:32:32.479Z,2.67
2019-03-31T12:35:00.916Z,2.40
2019-03-31T12:37:41.678Z,2.73
2019-03-31T12:39:59.562Z,3.23
2019-03-31T12:42:28.028Z,2.93
2019-03-31T12:44:56.519Z,3.53
2019-03-31T12:47:25.039Z,3.10
2019-03-31T12:49:53.498Z,3.80
2019-03-31T12:52:22.051Z,3.70
2019-03-31T12:54:50.499Z,3.33
2019-03-31T12:57:19.071Z,3.40
2019-03-31T12:59:47.542Z,3.77
2019-03-31T13:02:16.054Z,3.67
2019-03-31T13:04:44.531Z,3.43
2019-03-31T13:07:14.879Z,3.37
2019-03-31T13:09:43.178Z,4.47
2019-03-31T13:12:11.624Z,3.80
2019-03-31T13:14:40.098Z,4.13
2019-03-31T13:17:08.586Z,3.17
2019-03-31T13:19:37.057Z,3.77
2019-03-31T13:22:05.583Z,3.30
2019-03-31T13:24:34.131Z,3.87
2019-03-31T13:27:02.579Z,3.20
2019-03-31T13:29:31.059Z,3.60
2019-03-31T13:31:59.500Z,4.20
2019-03-31T13:34:27.961Z,3.87
2019-03-31T13:36:56.408Z,3.53
2019-03-31T13:39:24.875Z,3.37
2019-03-31T13:41:53.343Z,3.93
2019-03-31T13:44:21.790Z,3.40
2019-03-31T13:46:50.266Z,3.87
2019-03-31T13:49:18.715Z,4.00
2019-03-31T13:51:47.179Z,4.30
2019-03-31T13:54:15.659Z,4.00
2019-03-31T13:56:47.709Z,4.00
2019-03-31T13:59:14.294Z,4.03
2019-03-31T14:01:43.306Z,3.63
2019-03-31T14:04:12.439Z,3.20
2019-03-31T14:06:40.987Z,3.37
2019-03-31T14:09:10.002Z,3.40
2019-03-31T14:11:38.587Z,2.70
2019-03-31T14:14:07.078Z,2.80
2019-03-31T14:16:35.548Z,2.70
2019-03-31T14:19:04.259Z,2.67
2019-03-31T14:21:32.727Z,3.30
2019-03-31T14:24:01.198Z,2.63
2019-03-31T14:26:29.641Z,3.20
2019-03-31T14:28:58.121Z,2.80
2019-03-31T14:31:26.583Z,2.50
2019-03-31T14:33:55.018Z,3.13
2019-03-31T14:36:23.483Z,2.90
2019-03-31T14:38:52.022Z,2.50
2019-03-31T14:41:20.558Z,2.77
2019-03-31T14:43:49.039Z,3.20
2019-03-31T14:46:19.652Z,3.57
2019-03-31T14:48:47.654Z,3.40
2019-03-31T14:51:16.190Z,3.67
2019-03-31T14:53:44.639Z,3.30
2019-03-31T14:56:13.104Z,3.03
2019-03-31T14:58:41.541Z,2.70
2019-03-31T15:01:10.097Z,2.73
2019-03-31T15:03:38.561Z,3.10
2019-03-31T15:06:07.007Z,2.70
2019-03-31T15:08:35.483Z,2.63
2019-03-31T15:11:03.920Z,2.60
2019-03-31T15:13:32.395Z,2.73
2019-03-31T15:16:00.905Z,3.07
2019-03-31T15:18:29.375Z,2.57
2019-03-31T15:20:57.811Z,2.90
2019-03-31T15:23:29.587Z,2.87
2019-03-31T15:25:56.559Z,3.03
2019-03-31T15:28:25.136Z,2.27
2019-03-31T15:30:53.613Z,2.47
2019-03-31T15:33:22.058Z,3.43
2019-03-31T15:35:50.496Z,2.70
2019-03-31T15:38:18.963Z,3.00
2019-03-31T15:40:48.589Z,2.90
2019-03-31T15:43:17.271Z,2.50
2019-03-31T15:45:45.756Z,2.40
2019-03-31T15:48:14.203Z,2.33
2019-03-31T15:50:42.646Z,3.30
2019-03-31T15:53:11.127Z,2.30
2019-03-31T15:55:39.603Z,3.10
2019-03-31T15:58:08.047Z,2.60
2019-03-31T16:00:36.514Z,2.60
2019-03-31T16:03:05.050Z,2.73
2019-03-31T16:05:33.568Z,2.47
2019-03-31T16:08:02.035Z,2.37
2019-03-31T16:10:30.479Z,2.90
2019-03-31T16:12:58.957Z,2.70
2019-03-31T16:15:27.582Z,3.20
2019-03-31T16:17:56.067Z,2.87
2019-03-31T16:20:24.503Z,2.10
2019-03-31T16:22:52.990Z,2.00
2019-03-31T16:25:38.505Z,2.10
2019-03-31T16:28:06.977Z,2.20
2019-03-31T16:30:36.556Z,2.90
2019-03-31T16:33:07.050Z,2.57
2019-03-31T16:35:35.370Z,2.20
2019-03-31T16:38:03.882Z,1.90
2019-03-31T16:40:32.323Z,1.90
2019-03-31T16:43:00.791Z,2.00
2019-03-31T16:45:29.259Z,2.23
2019-03-31T16:47:57.699Z,2.30
2019-03-31T16:50:26.210Z,2.60
2019-03-31T16:52:54.755Z,2.00
2019-03-31T16:55:23.205Z,2.27
2019-03-31T16:57:51.673Z,2.30
2019-03-31T17:00:20.275Z,2.57
2019-03-31T17:02:48.717Z,2.63
2019-03-31T17:05:22.054Z,2.30
2019-03-31T17:07:47.434Z,2.00
2019-03-31T17:10:15.979Z,2.10
2019-03-31T17:12:44.430Z,1.77
2019-03-31T17:15:14.039Z,2.00
2019-03-31T17:17:42.479Z,1.90
2019-03-31T17:20:11.939Z,2.47
2019-03-31T17:22:40.469Z,1.67
2019-03-31T17:25:09.863Z,1.93
2019-03-31T17:27:38.330Z,1.90
2019-03-31T17:30:07.138Z,2.00
2019-03-31T17:32:35.571Z,1.90
2019-03-31T17:35:04.770Z,2.50
2019-03-31T17:37:33.290Z,2.10
2019-03-31T17:40:06.268Z,2.40
2019-03-31T17:42:31.899Z,2.17
2019-03-31T17:45:00.353Z,2.13
2019-03-31T17:47:28.824Z,2.37
2019-03-31T17:49:57.291Z,2.10
2019-03-31T17:52:25.732Z,1.97
2019-03-31T17:54:54.207Z,2.67
2019-03-31T17:57:22.742Z,2.20
2019-03-31T17:59:51.206Z,2.07
2019-03-31T18:02:19.675Z,2.53
2019-03-31T18:04:48.134Z,2.10
2019-03-31T18:07:16.578Z,2.13
2019-03-31T18:09:45.047Z,2.40
2019-03-31T18:12:13.522Z,2.73
2019-03-31T18:14:41.994Z,2.20
2019-03-31T18:17:10.530Z,2.60
2019-03-31T18:19:38.967Z,3.03
2019-03-31T18:22:16.316Z,2.43
2019-03-31T18:24:37.629Z,2.77
2019-03-31T18:27:06.101Z,1.87
2019-03-31T18:29:34.538Z,2.93
2019-03-31T18:32:03.015Z,2.67
2019-03-31T18:34:31.547Z,2.70
2019-03-31T18:36:59.986Z,2.60
2019-03-31T18:39:28.450Z,2.40
2019-03-31T18:41:56.910Z,2.67
2019-03-31T18:44:25.770Z,2.17
2019-03-31T18:46:54.255Z,2.20
2019-03-31T18:49:22.727Z,2.17
2019-03-31T18:51:51.186Z,1.87
2019-03-31T18:54:21.343Z,2.10
2019-03-31T18:56:51.513Z,1.97
2019-03-31T18:59:30.883Z,2.03
2019-03-31T19:02:16.343Z,1.97
2019-03-31T19:04:46.465Z,2.13
2019-03-31T19:07:22.829Z,2.53
2019-03-31T19:10:23.671Z,2.00
2019-03-31T19:12:50.623Z,1.93
2019-03-31T19:15:26.747Z,2.30
2019-03-31T19:17:59.775Z,2.00
2019-03-31T19:20:30.089Z,2.10
2019-03-31T19:23:16.326Z,2.30
2019-03-31T19:25:49.338Z,2.00
2019-03-31T19:28:19.462Z,2.03
2019-03-31T19:30:55.299Z,2.23
2019-03-31T19:33:30.867Z,2.30
2019-03-31T19:36:03.599Z,2.57
2019-03-31T19:38:33.727Z,2.10
2019-03-31T19:41:20.119Z,2.20
2019-03-31T19:43:56.198Z,2.77
2019-03-31T19:46:42.286Z,2.00
2019-03-31T19:49:12.423Z,2.23
2019-03-31T19:51:42.610Z,1.90
2019-03-31T19:54:13.520Z,2.27
2019-03-31T19:57:19.558Z,2.30
2019-03-31T19:59:52.331Z,2.93
2019-03-31T20:02:31.635Z,2.03
2019-03-31T20:05:01.755Z,2.20
2019-03-31T20:07:34.575Z,2.47
2019-03-31T20:10:14.218Z,2.13
2019-03-31T20:12:48.554Z,2.00
2019-03-31T20:15:34.848Z,2.30
2019-03-31T20:18:13.922Z,2.40
2019-03-31T20:20:52.541Z,2.30
2019-03-31T20:23:22.632Z,2.87
2019-03-31T20:25:52.718Z,2.37
2019-03-31T20:28:34.569Z,2.10
2019-03-31T20:31:04.651Z,1.87
2019-03-31T20:33:34.728Z,2.23
2019-03-31T20:36:29.995Z,3.30
2019-03-31T20:41:53.499Z,3.60
2019-03-31T20:44:21.966Z,2.90
2019-03-31T20:46:50.484Z,2.40
2019-03-31T20:49:18.955Z,2.37
2019-03-31T20:51:47.391Z,1.97
2019-03-31T20:54:15.864Z,2.87
2019-03-31T20:56:44.378Z,2.23
2019-03-31T20:59:12.832Z,2.40
2019-03-31T21:01:41.301Z,1.80
2019-03-31T21:04:09.771Z,2.67
2019-03-31T21:06:38.249Z,2.33
2019-03-31T21:09:08.462Z,1.93
2019-03-31T21:12:25.575Z,2.10
2019-03-31T21:14:54.010Z,1.90
2019-03-31T21:17:22.499Z,1.87
2019-03-31T21:19:50.931Z,1.70
2019-03-31T21:22:19.373Z,2.10
2019-03-31T21:24:47.933Z,2.10
2019-03-31T21:27:16.386Z,2.30
2019-03-31T21:29:44.827Z,2.07
2019-03-31T21:32:13.422Z,2.50
2019-03-31T21:34:41.907Z,2.10
2019-03-31T21:37:10.338Z,1.53
2019-03-31T21:39:38.802Z,1.90
2019-03-31T21:42:07.690Z,2.40
2019-03-31T21:44:36.119Z,1.90
2019-03-31T21:47:04.590Z,2.00
2019-03-31T21:49:33.119Z,1.90
2019-03-31T21:52:01.566Z,1.60
2019-03-31T21:54:30.022Z,1.93
2019-03-31T21:56:58.536Z,2.20
2019-03-31T21:59:27.008Z,1.80
2019-03-31T22:01:55.446Z,1.80
2019-03-31T22:04:23.915Z,1.60
2019-03-31T22:06:52.354Z,2.23
2019-03-31T22:09:20.790Z,1.80
2019-03-31T22:11:49.247Z,2.40
2019-03-31T22:14:17.685Z,2.37
2019-03-31T22:16:46.135Z,1.80
2019-03-31T22:19:14.599Z,2.03
2019-03-31T22:21:43.077Z,2.30
2019-03-31T22:24:11.515Z,2.30
2019-03-31T22:26:39.949Z,2.10
2019-03-31T22:29:08.420Z,1.63
2019-03-31T22:31:36.928Z,2.07
2019-03-31T22:34:05.397Z,2.40
2019-03-31T22:36:33.854Z,2.47
2019-03-31T22:39:02.314Z,1.90
2019-03-31T22:41:30.758Z,1.80
2019-03-31T22:43:59.225Z,2.50
2019-03-31T22:46:27.673Z,1.90
2019-03-31T22:48:56.139Z,2.20
2019-03-31T22:51:24.577Z,2.07
2019-03-31T22:53:53.114Z,1.97
2019-03-31T22:56:21.580Z,2.20
2019-03-31T22:58:50.024Z,1.70
2019-03-31T23:01:18.569Z,1.80
2019-03-31T23:03:47.005Z,1.90
2019-03-31T23:06:15.443Z,2.10
2019-03-31T23:08:43.915Z,1.73
2019-03-31T23:11:12.347Z,2.03
2019-03-31T23:13:40.815Z,3.13
2019-03-31T23:16:09.373Z,2.00
2019-03-31T23:18:37.996Z,2.00
2019-03-31T23:21:06.459Z,3.43
2019-03-31T23:23:34.930Z,2.63
2019-03-31T23:26:03.466Z,2.30
2019-03-31T23:28:32.367Z,2.37
2019-03-31T23:31:03.512Z,2.50
2019-03-31T23:33:30.999Z,2.77
2019-03-31T23:35:59.460Z,2.10
2019-03-31T23:38:27.926Z,1.90
2019-03-31T23:40:56.367Z,2.00
2019-03-31T23:43:24.840Z,2.10
2019-03-31T23:45:53.289Z,2.50
2019-03-31T23:48:21.755Z,2.23
2019-03-31T23:50:50.196Z,2.20
2019-03-31T23:53:18.657Z,1.70
2019-03-31T23:55:47.195Z,1.77
2019-03-31T23:58:15.641Z,2.03
